Jaguaribara, Brazil
Current Conditions -  °F | °C
As of 12:00 AM on Thursday 23 Oct 2014 (Local Time) from SBJU Reporting Station
Few Clouds Few Clouds  
Wind Chill: 86°   Ceiling: Unl
Heat Index: 87°   Visibility: 6mi
Dew Point: 63°   Wind: 8mph
Humidity: 45%   Direction: 130°SE
Pressure: 30.03"   Gusts: NA
Location:  5.66°S, 38.62°W
Report Text: SBJU 230300Z 13007KT 9999 FEW022 30/17 Q1017
Loading
Personal Weather Stations






























Interactive Weather Map
Tropical Storm Tracking
New forecast layout! Learn more

10-Day Weather Forecast

Advertisements
Track Severe Weather on mobile